createdAt,value
2023-01-25T00:02:07.295Z,46.25
2023-01-25T00:04:33.914Z,48.53
2023-01-25T00:07:00.767Z,48.28
2023-01-25T00:09:27.503Z,50.35
2023-01-25T00:11:56.342Z,48.35
2023-01-25T00:14:23.308Z,49.17
2023-01-25T00:16:50.058Z,49.17
2023-01-25T00:19:16.884Z,48.40
2023-01-25T00:21:43.603Z,50.33
2023-01-25T00:24:11.867Z,52.05
2023-01-25T00:26:39.232Z,48.75
2023-01-25T00:29:12.545Z,49.90
2023-01-25T00:32:01.045Z,52.70
2023-01-25T00:34:29.395Z,48.03
2023-01-25T00:37:23.088Z,51.03
2023-01-25T00:39:49.673Z,54.00
2023-01-25T00:42:18.485Z,52.13
2023-01-25T00:44:45.637Z,56.08
2023-01-25T00:47:12.685Z,56.75
2023-01-25T00:49:40.330Z,54.65
2023-01-25T00:52:07.732Z,59.05
2023-01-25T00:54:34.253Z,57.55
2023-01-25T00:57:00.768Z,52.78
2023-01-25T00:59:27.403Z,56.33
2023-01-25T01:01:55.690Z,58.03
2023-01-25T01:04:25.021Z,57.60
2023-01-25T01:06:53.827Z,61.92
2023-01-25T01:09:21.319Z,60.83
2023-01-25T01:11:48.022Z,59.25
2023-01-25T01:14:15.036Z,57.35
2023-01-25T01:16:41.845Z,62.30
2023-01-25T01:19:10.030Z,60.35
2023-01-25T01:21:36.650Z,62.85
2023-01-25T01:24:03.301Z,59.60
2023-01-25T01:26:29.935Z,63.30
2023-01-25T01:28:58.335Z,59.35
2023-01-25T01:31:25.445Z,55.92
2023-01-25T01:34:12.734Z,60.03
2023-01-25T01:36:39.321Z,60.45
2023-01-25T01:39:06.103Z,62.53
2023-01-25T01:41:32.681Z,64.32
2023-01-25T01:43:59.756Z,67.50
2023-01-25T01:46:35.789Z,66.05
2023-01-25T01:49:26.419Z,67.80
2023-01-25T01:52:10.178Z,62.92
2023-01-25T01:54:45.134Z,63.30
2023-01-25T01:57:34.469Z,62.00
2023-01-25T02:00:06.998Z,61.22
2023-01-25T02:02:45.510Z,64.53
2023-01-25T02:05:22.660Z,65.88
2023-01-25T02:07:53.146Z,64.88
2023-01-25T02:10:20.914Z,68.70
2023-01-25T02:12:48.750Z,67.22
2023-01-25T02:15:15.403Z,67.50
2023-01-25T02:17:42.790Z,69.13
2023-01-25T02:20:37.298Z,66.57
2023-01-25T02:23:04.524Z,66.28
2023-01-25T02:25:31.150Z,66.15
2023-01-25T02:28:04.333Z,67.00
2023-01-25T02:30:31.241Z,61.88
2023-01-25T02:32:57.786Z,70.13
2023-01-25T02:35:44.595Z,64.57
2023-01-25T02:38:17.245Z,68.97
2023-01-25T02:41:02.945Z,67.72
2023-01-25T02:43:34.178Z,73.60
2023-01-25T02:46:15.539Z,70.95
2023-01-25T02:48:44.876Z,72.18
2023-01-25T02:51:12.466Z,73.68
2023-01-25T02:53:40.889Z,77.63
2023-01-25T02:56:07.798Z,73.72
2023-01-25T02:58:34.365Z,81.68
2023-01-25T03:01:02.086Z,72.28
2023-01-25T03:03:28.644Z,77.60
2023-01-25T03:05:55.288Z,76.05
2023-01-25T03:08:21.870Z,81.68
2023-01-25T03:10:51.397Z,78.70
2023-01-25T03:13:17.909Z,80.55
2023-01-25T03:15:45.309Z,77.47
2023-01-25T03:18:11.857Z,76.30
2023-01-25T03:20:38.439Z,81.80
2023-01-25T03:23:04.930Z,79.75
2023-01-25T03:25:31.673Z,82.82
2023-01-25T03:28:08.789Z,77.15
2023-01-25T03:30:35.607Z,77.13
2023-01-25T03:33:02.310Z,76.90
2023-01-25T03:35:28.843Z,86.03
2023-01-25T03:37:55.696Z,82.20
2023-01-25T03:40:23.574Z,80.82
2023-01-25T03:42:50.353Z,78.00
2023-01-25T03:45:17.427Z,82.63
2023-01-25T03:47:44.025Z,80.72
2023-01-25T03:50:11.130Z,81.20
2023-01-25T03:52:42.247Z,80.45
2023-01-25T03:55:30.785Z,82.65
2023-01-25T03:57:57.467Z,78.50
2023-01-25T04:00:25.765Z,81.28
2023-01-25T04:02:58.915Z,80.45
2023-01-25T04:05:27.290Z,85.25
2023-01-25T04:07:53.920Z,81.00
2023-01-25T04:10:28.853Z,80.85
2023-01-25T04:12:55.672Z,81.45
2023-01-25T04:15:23.187Z,80.50
2023-01-25T04:17:50.191Z,80.78
2023-01-25T04:20:23.138Z,76.95
2023-01-25T04:22:49.928Z,82.50
2023-01-25T04:25:18.927Z,82.25
2023-01-25T04:27:50.433Z,83.78
2023-01-25T04:30:17.619Z,80.00
2023-01-25T04:32:45.486Z,82.55
2023-01-25T04:35:20.635Z,84.82
2023-01-25T04:37:58.500Z,80.90
2023-01-25T04:40:30.147Z,78.93
2023-01-25T04:42:57.051Z,79.32
2023-01-25T04:45:25.675Z,77.32
2023-01-25T04:48:02.397Z,78.38
2023-01-25T04:50:30.680Z,78.53
2023-01-25T04:52:58.723Z,75.90
2023-01-25T04:55:27.093Z,77.13
2023-01-25T04:57:55.508Z,75.15
2023-01-25T05:00:22.538Z,79.15
2023-01-25T05:02:49.466Z,78.50
2023-01-25T05:05:16.258Z,77.90
2023-01-25T05:07:45.630Z,75.30
2023-01-25T05:10:13.115Z,74.50
2023-01-25T05:12:49.885Z,78.38
2023-01-25T05:15:16.494Z,82.82
2023-01-25T05:17:43.213Z,77.95
2023-01-25T05:20:10.846Z,80.30
2023-01-25T05:22:37.676Z,81.53
2023-01-25T05:25:28.927Z,79.82
2023-01-25T05:27:55.680Z,82.38
2023-01-25T05:30:39.902Z,80.93
2023-01-25T05:33:20.555Z,84.70
2023-01-25T05:35:47.406Z,82.95
2023-01-25T05:38:14.272Z,82.53
2023-01-25T05:40:42.399Z,88.03
2023-01-25T05:43:09.735Z,85.53
2023-01-25T05:45:36.340Z,85.97
2023-01-25T05:48:04.041Z,85.53
2023-01-25T05:50:30.573Z,85.25
2023-01-25T05:53:01.017Z,96.25
2023-01-25T05:55:28.910Z,94.97
2023-01-25T05:57:58.238Z,92.18
2023-01-25T06:00:24.858Z,91.38
2023-01-25T06:02:51.517Z,93.05
2023-01-25T06:05:22.382Z,94.35
2023-01-25T06:07:49.395Z,96.60
2023-01-25T06:10:17.609Z,96.20
2023-01-25T06:12:46.756Z,99.95
2023-01-25T06:15:13.331Z,97.40
2023-01-25T06:17:40.655Z,96.57
2023-01-25T06:20:25.769Z,96.20
2023-01-25T06:23:12.534Z,109.93
2023-01-25T06:25:39.126Z,107.90
2023-01-25T06:28:05.834Z,105.85
2023-01-25T06:30:32.478Z,106.20
2023-01-25T06:32:59.394Z,108.40
2023-01-25T06:35:26.061Z,109.15
2023-01-25T06:37:56.069Z,115.90
2023-01-25T06:40:22.642Z,112.93
2023-01-25T06:42:49.159Z,112.82
2023-01-25T06:45:15.716Z,119.60
2023-01-25T06:47:42.482Z,114.53
2023-01-25T06:50:10.576Z,115.40
2023-01-25T06:52:37.102Z,112.63
2023-01-25T06:55:05.992Z,123.00
2023-01-25T06:57:32.727Z,116.93
2023-01-25T06:59:59.294Z,121.95
2023-01-25T07:02:25.960Z,115.38
2023-01-25T07:04:52.646Z,117.38
2023-01-25T07:07:19.156Z,119.35
2023-01-25T07:09:46.745Z,117.35
2023-01-25T07:12:13.255Z,115.43
2023-01-25T07:14:39.832Z,112.40
2023-01-25T07:17:06.339Z,119.43
2023-01-25T07:19:32.963Z,115.15
2023-01-25T07:21:59.483Z,111.72
2023-01-25T07:24:27.299Z,116.25
2023-01-25T07:26:54.064Z,113.63
2023-01-25T07:29:21.901Z,114.95
2023-01-25T07:31:48.584Z,112.57
2023-01-25T07:34:16.567Z,120.65
2023-01-25T07:36:47.057Z,121.60
2023-01-25T07:39:13.889Z,124.35
2023-01-25T07:41:40.813Z,116.72
2023-01-25T07:44:12.273Z,112.53
2023-01-25T07:46:43.791Z,115.32
2023-01-25T07:49:10.340Z,110.40
2023-01-25T07:51:37.056Z,112.28
2023-01-25T07:54:05.153Z,115.43
2023-01-25T07:56:38.361Z,114.85
2023-01-25T07:59:05.014Z,117.78
2023-01-25T08:01:34.131Z,115.18
2023-01-25T08:04:02.067Z,117.88
2023-01-25T08:06:35.615Z,114.90
2023-01-25T08:09:12.240Z,119.82
2023-01-25T08:11:38.853Z,114.97
2023-01-25T08:14:05.439Z,116.05
2023-01-25T08:16:32.712Z,112.82
2023-01-25T08:19:01.043Z,120.53
2023-01-25T08:21:31.314Z,117.93
2023-01-25T08:24:03.815Z,113.63
2023-01-25T08:26:31.642Z,118.55
2023-01-25T08:28:58.663Z,118.45
2023-01-25T08:31:30.354Z,110.90
2023-01-25T08:33:58.070Z,115.47
2023-01-25T08:36:25.462Z,120.50
2023-01-25T08:38:57.307Z,118.30
2023-01-25T08:41:24.877Z,115.38
2023-01-25T08:43:53.844Z,112.20
2023-01-25T08:46:22.029Z,116.55
2023-01-25T08:48:52.932Z,115.78
2023-01-25T08:51:19.466Z,111.45
2023-01-25T08:53:46.062Z,122.72
2023-01-25T08:56:14.764Z,116.40
2023-01-25T08:58:46.097Z,118.93
2023-01-25T09:01:14.690Z,119.50
2023-01-25T09:03:44.060Z,118.45
2023-01-25T09:06:11.774Z,115.05
2023-01-25T09:08:51.458Z,115.63
2023-01-25T09:11:20.720Z,114.28
2023-01-25T09:13:48.798Z,114.43
2023-01-25T09:16:18.501Z,114.55
2023-01-25T09:18:45.306Z,121.03
2023-01-25T09:21:17.369Z,118.13
2023-01-25T09:23:51.061Z,117.28
2023-01-25T09:26:33.412Z,111.85
2023-01-25T09:29:00.144Z,116.82
2023-01-25T09:31:30.407Z,118.93
2023-01-25T09:34:15.753Z,118.85
2023-01-25T09:36:42.592Z,112.88
2023-01-25T09:39:12.381Z,114.90
2023-01-25T09:42:20.451Z,113.18
2023-01-25T09:44:59.923Z,114.25
2023-01-25T09:47:33.886Z,117.00
2023-01-25T09:50:07.500Z,118.47
2023-01-25T09:52:57.839Z,116.07
2023-01-25T09:55:28.028Z,118.13
2023-01-25T09:57:57.000Z,124.90
2023-01-25T10:00:35.812Z,117.53
2023-01-25T10:03:50.173Z,116.78
2023-01-25T10:06:17.696Z,113.30
2023-01-25T10:09:02.721Z,115.13
2023-01-25T10:11:32.001Z,111.82
2023-01-25T10:13:59.590Z,117.40
2023-01-25T10:16:33.281Z,112.65
2023-01-25T10:19:05.304Z,111.63
2023-01-25T10:21:42.676Z,116.70
2023-01-25T10:24:28.086Z,122.85
2023-01-25T10:27:03.483Z,117.38
2023-01-25T10:29:36.648Z,112.80
2023-01-25T10:32:16.540Z,119.60
2023-01-25T10:35:08.712Z,111.25
2023-01-25T10:37:36.554Z,120.20
2023-01-25T10:40:12.189Z,117.68
2023-01-25T10:42:49.939Z,114.80
2023-01-25T10:45:25.754Z,113.15
2023-01-25T10:48:03.440Z,117.97
2023-01-25T10:50:39.580Z,109.82
2023-01-25T10:53:33.816Z,110.05
2023-01-25T10:56:19.107Z,113.17
2023-01-25T10:58:48.828Z,109.35
2023-01-25T11:01:28.526Z,116.63
2023-01-25T11:03:56.255Z,111.60
2023-01-25T11:06:35.517Z,111.93
2023-01-25T11:09:22.030Z,110.63
2023-01-25T11:12:11.804Z,110.38
2023-01-25T11:14:38.346Z,113.07
2023-01-25T11:17:06.530Z,111.43
2023-01-25T11:19:33.060Z,111.20
2023-01-25T11:22:01.779Z,107.70
2023-01-25T11:24:31.051Z,114.45
2023-01-25T11:27:21.859Z,112.53
2023-01-25T11:30:16.958Z,109.30
2023-01-25T11:32:43.744Z,105.10
2023-01-25T11:35:21.122Z,110.50
2023-01-25T11:38:09.313Z,105.25
2023-01-25T11:40:41.997Z,111.50
2023-01-25T11:43:25.998Z,109.90
2023-01-25T11:46:30.022Z,112.07
2023-01-25T11:49:18.795Z,110.15
2023-01-25T11:52:09.987Z,108.88
2023-01-25T11:54:51.058Z,110.97
2023-01-25T11:58:07.075Z,105.22
2023-01-25T12:00:43.345Z,105.32
2023-01-25T12:03:26.853Z,107.10
2023-01-25T12:06:18.253Z,103.82
2023-01-25T12:09:07.359Z,107.60
2023-01-25T12:11:36.922Z,110.05
2023-01-25T12:14:40.926Z,107.88
2023-01-25T12:17:16.555Z,104.47
2023-01-25T12:20:01.657Z,109.95
2023-01-25T12:22:49.938Z,100.70
2023-01-25T12:25:45.342Z,105.45
2023-01-25T12:28:24.589Z,100.65
2023-01-25T12:31:04.959Z,104.90
2023-01-25T12:33:52.224Z,98.30
2023-01-25T12:36:30.564Z,100.75
2023-01-25T12:39:22.013Z,99.25
2023-01-25T12:41:57.331Z,99.70
2023-01-25T12:44:46.738Z,97.80
2023-01-25T12:47:46.287Z,99.93
2023-01-25T12:50:18.733Z,94.45
2023-01-25T12:52:52.517Z,97.50
2023-01-25T12:55:19.567Z,99.60
2023-01-25T12:58:00.735Z,97.30
2023-01-25T13:00:49.372Z,100.85
2023-01-25T13:03:30.777Z,105.40
2023-01-25T13:06:17.488Z,92.45
2023-01-25T13:08:56.041Z,96.65
2023-01-25T13:11:31.384Z,92.95
2023-01-25T13:14:16.198Z,93.53
2023-01-25T13:16:44.550Z,94.50
2023-01-25T13:19:37.622Z,92.25
2023-01-25T13:22:05.204Z,95.25
2023-01-25T13:24:34.099Z,95.45
2023-01-25T13:27:31.014Z,98.15
2023-01-25T13:30:16.065Z,97.03
2023-01-25T13:32:51.471Z,102.85
2023-01-25T13:35:51.597Z,98.00
2023-01-25T13:38:18.110Z,94.65
2023-01-25T13:40:44.820Z,91.40
2023-01-25T13:43:22.615Z,101.05
2023-01-25T13:45:52.418Z,94.50
2023-01-25T13:48:23.881Z,92.45
2023-01-25T13:50:59.799Z,92.47
2023-01-25T13:53:29.714Z,88.65
2023-01-25T13:55:58.355Z,87.65
2023-01-25T13:58:25.014Z,87.90
2023-01-25T14:00:56.501Z,85.53
2023-01-25T14:03:31.100Z,86.15
2023-01-25T14:06:02.505Z,89.22
2023-01-25T14:08:30.515Z,86.57
2023-01-25T14:10:58.132Z,84.07
2023-01-25T14:13:25.119Z,85.53
2023-01-25T14:16:00.187Z,81.15
2023-01-25T14:18:38.616Z,78.60
2023-01-25T14:21:23.099Z,86.55
2023-01-25T14:23:49.901Z,83.70
2023-01-25T14:26:22.620Z,87.13
2023-01-25T14:29:01.237Z,85.20
2023-01-25T14:31:33.309Z,88.35
2023-01-25T14:34:00.121Z,86.18
2023-01-25T14:36:29.374Z,92.10
2023-01-25T14:38:56.603Z,86.45
2023-01-25T14:41:33.937Z,84.00
2023-01-25T14:44:12.888Z,89.07
2023-01-25T14:46:40.361Z,90.18
2023-01-25T14:49:09.903Z,85.70
2023-01-25T14:51:48.501Z,88.43
2023-01-25T14:54:20.612Z,90.07
2023-01-25T14:56:49.986Z,84.30
2023-01-25T14:59:33.703Z,84.47
2023-01-25T15:02:25.919Z,87.45
2023-01-25T15:04:55.338Z,84.70
2023-01-25T15:07:40.671Z,81.00
2023-01-25T15:10:31.611Z,88.45
2023-01-25T15:13:14.023Z,85.82
2023-01-25T15:15:58.649Z,87.25
2023-01-25T15:18:47.245Z,86.78
2023-01-25T15:21:16.975Z,89.72
2023-01-25T15:23:46.097Z,90.45
2023-01-25T15:26:21.902Z,91.80
2023-01-25T15:28:49.664Z,88.63
2023-01-25T15:31:26.652Z,92.07
2023-01-25T15:33:55.200Z,84.63
2023-01-25T15:36:21.939Z,92.60
2023-01-25T15:38:48.475Z,85.55
2023-01-25T15:41:15.077Z,88.53
2023-01-25T15:43:41.682Z,81.95
2023-01-25T15:46:19.638Z,86.55
2023-01-25T15:48:48.233Z,83.90
2023-01-25T15:51:15.219Z,85.45
2023-01-25T15:53:42.337Z,81.70
2023-01-25T15:56:18.670Z,86.38
2023-01-25T15:58:52.305Z,85.53
2023-01-25T16:01:27.279Z,86.85
2023-01-25T16:03:55.623Z,85.28
2023-01-25T16:06:50.862Z,82.97
2023-01-25T16:09:23.903Z,82.40
2023-01-25T16:11:52.751Z,85.93
2023-01-25T16:14:19.760Z,84.60
2023-01-25T16:16:49.410Z,88.10
2023-01-25T16:19:19.441Z,86.03
2023-01-25T16:21:45.972Z,83.65
2023-01-25T16:24:12.714Z,82.95
2023-01-25T16:26:54.041Z,83.28
2023-01-25T16:29:22.913Z,83.72
2023-01-25T16:31:50.289Z,84.70
2023-01-25T16:34:16.884Z,86.50
2023-01-25T16:36:50.021Z,85.00
2023-01-25T16:39:20.143Z,84.88
2023-01-25T16:41:47.364Z,87.65
2023-01-25T16:44:13.971Z,86.95
2023-01-25T16:46:40.587Z,91.72
2023-01-25T16:49:18.498Z,91.28
2023-01-25T16:51:49.654Z,86.85
2023-01-25T16:54:16.343Z,82.93
2023-01-25T16:56:42.936Z,89.75
2023-01-25T16:59:10.365Z,87.95
2023-01-25T17:01:39.862Z,92.03
2023-01-25T17:04:07.006Z,87.50
2023-01-25T17:06:38.260Z,90.05
2023-01-25T17:09:21.614Z,89.82
2023-01-25T17:11:49.268Z,85.25
2023-01-25T17:14:18.682Z,94.30
2023-01-25T17:16:47.893Z,94.75
2023-01-25T17:19:18.477Z,96.50
2023-01-25T17:21:45.492Z,99.20
2023-01-25T17:24:17.496Z,96.47
2023-01-25T17:26:44.247Z,101.32
2023-01-25T17:29:11.056Z,94.85
2023-01-25T17:31:39.579Z,101.82
2023-01-25T17:34:07.979Z,102.80
2023-01-25T17:36:34.558Z,106.50
2023-01-25T17:39:05.571Z,108.30
2023-01-25T17:41:32.524Z,111.18
2023-01-25T17:43:59.287Z,108.88
2023-01-25T17:46:33.214Z,113.43
2023-01-25T17:49:01.953Z,119.18
2023-01-25T17:51:28.474Z,116.95
2023-01-25T17:53:55.116Z,118.82
2023-01-25T17:56:21.738Z,119.45
2023-01-25T17:58:48.376Z,107.75
2023-01-25T18:01:20.287Z,118.35
2023-01-25T18:03:48.605Z,112.80
2023-01-25T18:06:17.512Z,111.93
2023-01-25T18:08:50.316Z,114.80
2023-01-25T18:11:20.201Z,112.22
2023-01-25T18:13:49.314Z,116.75
2023-01-25T18:16:17.314Z,106.45
2023-01-25T18:18:44.961Z,117.50
2023-01-25T18:21:14.010Z,123.10
2023-01-25T18:23:41.994Z,118.00
2023-01-25T18:26:17.345Z,119.85
2023-01-25T18:31:10.886Z,117.07
2023-01-25T18:33:38.340Z,121.95
2023-01-25T18:36:05.571Z,128.30
2023-01-25T18:38:32.879Z,126.45
2023-01-25T18:40:59.789Z,116.57
2023-01-25T18:43:27.984Z,125.15
2023-01-25T18:45:55.743Z,121.43
2023-01-25T18:48:30.227Z,119.65
2023-01-25T18:51:05.621Z,122.47
2023-01-25T18:53:33.442Z,124.97
2023-01-25T18:56:11.086Z,120.80
2023-01-25T18:58:38.238Z,113.53
2023-01-25T19:01:15.120Z,120.95
2023-01-25T19:03:43.100Z,123.35
2023-01-25T19:06:10.721Z,117.32
2023-01-25T19:08:41.235Z,121.38
2023-01-25T19:11:10.926Z,113.25
2023-01-25T19:13:38.754Z,112.82
2023-01-25T19:16:07.259Z,118.57
2023-01-25T19:18:40.720Z,115.88
2023-01-25T19:21:09.273Z,115.15
2023-01-25T19:23:38.045Z,114.82
2023-01-25T19:26:05.860Z,115.82
2023-01-25T19:28:34.590Z,127.18
2023-01-25T19:31:32.509Z,125.35
2023-01-25T19:34:03.564Z,122.28
2023-01-25T19:36:32.410Z,125.50
2023-01-25T19:38:59.165Z,122.50
2023-01-25T19:41:27.839Z,118.72
2023-01-25T19:43:54.788Z,122.93
2023-01-25T19:46:24.837Z,121.47
2023-01-25T19:48:52.475Z,114.72
2023-01-25T19:51:21.596Z,118.88
2023-01-25T19:54:18.513Z,118.28
2023-01-25T19:56:47.565Z,115.20
2023-01-25T19:59:17.183Z,127.65
2023-01-25T20:01:44.719Z,123.80
2023-01-25T20:04:22.024Z,123.97
2023-01-25T20:06:50.209Z,109.18
2023-01-25T20:09:19.660Z,116.53
2023-01-25T20:11:47.493Z,112.72
2023-01-25T20:14:15.259Z,120.65
2023-01-25T20:16:42.068Z,116.25
2023-01-25T20:19:11.572Z,112.63
2023-01-25T20:21:39.767Z,116.65
2023-01-25T20:24:07.345Z,117.70
2023-01-25T20:26:38.941Z,122.47
2023-01-25T20:29:07.220Z,115.90
2023-01-25T20:31:36.343Z,122.95
2023-01-25T20:34:05.538Z,119.53
2023-01-25T20:36:34.802Z,112.70
2023-01-25T20:39:01.784Z,120.13
2023-01-25T20:41:28.454Z,110.85
2023-01-25T20:43:57.478Z,113.53
2023-01-25T20:46:24.666Z,112.15
2023-01-25T20:48:53.410Z,113.93
2023-01-25T20:51:21.584Z,120.88
2023-01-25T20:53:49.656Z,114.18
2023-01-25T20:56:17.807Z,112.68
2023-01-25T20:58:50.592Z,113.97
2023-01-25T21:01:21.406Z,111.97
2023-01-25T21:03:49.201Z,108.72
2023-01-25T21:06:20.738Z,102.22
2023-01-25T21:08:47.284Z,110.03
2023-01-25T21:11:14.244Z,108.55
2023-01-25T21:13:41.064Z,101.65
2023-01-25T21:16:14.938Z,110.53
2023-01-25T21:18:46.744Z,109.93
2023-01-25T21:21:15.799Z,108.32
2023-01-25T21:23:44.930Z,108.80
2023-01-25T21:26:26.775Z,108.65
2023-01-25T21:28:57.866Z,110.57
2023-01-25T21:31:29.905Z,111.68
2023-01-25T21:33:56.893Z,108.40
2023-01-25T21:36:23.463Z,111.20
2023-01-25T21:38:51.452Z,114.25
2023-01-25T21:41:20.782Z,107.25
2023-01-25T21:44:10.880Z,107.28
2023-01-25T21:46:37.619Z,108.68
2023-01-25T21:49:25.097Z,107.47
2023-01-25T21:51:56.535Z,110.97
2023-01-25T21:54:28.549Z,102.72
2023-01-25T21:56:57.221Z,106.15
2023-01-25T21:59:24.201Z,110.60
2023-01-25T22:01:51.833Z,109.20
2023-01-25T22:04:19.801Z,105.25
2023-01-25T22:06:50.566Z,105.40
2023-01-25T22:09:17.052Z,104.25
2023-01-25T22:11:45.926Z,104.55
2023-01-25T22:14:14.003Z,102.40
2023-01-25T22:16:41.115Z,105.68
2023-01-25T22:19:07.928Z,103.38
2023-01-25T22:21:34.580Z,103.20
2023-01-25T22:24:03.353Z,112.22
2023-01-25T22:26:39.061Z,100.47
2023-01-25T22:29:05.717Z,103.32
2023-01-25T22:31:32.332Z,101.18
2023-01-25T22:33:59.731Z,108.25
2023-01-25T22:36:28.539Z,110.15
2023-01-25T22:38:55.446Z,117.25
2023-01-25T22:41:24.569Z,110.50
2023-01-25T22:43:51.999Z,111.40
2023-01-25T22:46:24.382Z,99.38
2023-01-25T22:48:51.385Z,107.13
2023-01-25T22:51:25.436Z,114.45
2023-01-25T22:53:52.643Z,111.25
2023-01-25T22:56:22.618Z,113.72
2023-01-25T22:58:49.546Z,104.68
2023-01-25T23:01:20.689Z,108.95
2023-01-25T23:03:49.263Z,109.93
2023-01-25T23:06:18.936Z,111.28
2023-01-25T23:08:45.978Z,104.78
2023-01-25T23:11:18.371Z,109.32
2023-01-25T23:14:05.637Z,104.65
2023-01-25T23:16:33.918Z,94.22
2023-01-25T23:19:01.305Z,93.93
2023-01-25T23:21:29.784Z,95.57
2023-01-25T23:23:58.318Z,99.18
2023-01-25T23:26:24.809Z,102.60
2023-01-25T23:28:53.336Z,98.65
2023-01-25T23:31:21.975Z,90.60
2023-01-25T23:33:57.423Z,96.65
2023-01-25T23:36:34.949Z,93.85
2023-01-25T23:39:02.053Z,98.18
2023-01-25T23:41:30.194Z,93.25
2023-01-25T23:43:57.948Z,95.65
2023-01-25T23:46:25.298Z,88.95
2023-01-25T23:48:52.248Z,91.10
2023-01-25T23:51:19.991Z,86.57
2023-01-25T23:53:47.106Z,85.47
2023-01-25T23:56:15.918Z,93.22
2023-01-25T23:58:42.855Z,89.60
